createdAt,value
2024-02-21T00:01:33.405Z,16.30
2024-02-21T00:04:01.424Z,16.84
2024-02-21T00:06:28.647Z,16.69
2024-02-21T00:08:55.903Z,16.81
2024-02-21T00:11:23.552Z,16.00
2024-02-21T00:13:52.051Z,16.45
2024-02-21T00:16:19.292Z,15.59
2024-02-21T00:18:46.805Z,15.64
2024-02-21T00:21:18.985Z,15.91
2024-02-21T00:23:47.201Z,16.35
2024-02-21T00:26:17.417Z,16.29
2024-02-21T00:28:44.654Z,16.77
2024-02-21T00:31:12.173Z,16.63
2024-02-21T00:33:39.434Z,16.47
2024-02-21T00:36:06.658Z,16.57
2024-02-21T00:38:34.287Z,17.00
2024-02-21T00:41:01.505Z,16.85
2024-02-21T00:43:28.810Z,16.63
2024-02-21T00:45:56.368Z,17.11
2024-02-21T00:48:23.791Z,16.81
2024-02-21T00:50:51.042Z,16.75
2024-02-21T00:53:18.509Z,16.95
2024-02-21T00:55:45.763Z,17.10
2024-02-21T00:58:13.400Z,16.98
2024-02-21T01:00:41.843Z,16.73
2024-02-21T01:03:09.106Z,16.15
2024-02-21T01:05:36.408Z,16.78
2024-02-21T01:08:04.134Z,17.05
2024-02-21T01:10:31.396Z,17.09
2024-02-21T01:12:58.697Z,17.08
2024-02-21T01:15:26.307Z,16.19
2024-02-21T01:17:55.878Z,16.90
2024-02-21T01:20:23.235Z,16.87
2024-02-21T01:22:50.782Z,16.85
2024-02-21T01:25:18.114Z,16.92
2024-02-21T01:27:45.308Z,16.88
2024-02-21T01:30:12.983Z,16.54
2024-02-21T01:32:40.239Z,16.51
2024-02-21T01:35:07.712Z,16.50
2024-02-21T01:37:35.779Z,16.79
2024-02-21T01:40:04.311Z,16.90
2024-02-21T01:42:31.566Z,16.41
2024-02-21T01:44:59.028Z,16.48
2024-02-21T01:47:26.219Z,16.25
2024-02-21T01:49:53.446Z,16.18
2024-02-21T01:52:20.942Z,16.18
2024-02-21T01:54:48.150Z,15.73
2024-02-21T01:57:15.944Z,16.08
2024-02-21T01:59:43.382Z,16.01
2024-02-21T02:02:10.621Z,16.46
2024-02-21T02:04:38.672Z,16.56
2024-02-21T02:07:05.952Z,16.24
2024-02-21T02:09:33.157Z,16.00
2024-02-21T02:12:00.723Z,16.80
2024-02-21T02:14:27.951Z,16.50
2024-02-21T02:16:55.252Z,16.57
2024-02-21T02:19:23.008Z,16.16
2024-02-21T02:21:57.831Z,16.46
2024-02-21T02:24:25.683Z,16.56
2024-02-21T02:26:52.963Z,16.14
2024-02-21T02:29:20.540Z,16.23
2024-02-21T02:31:48.237Z,16.22
2024-02-21T02:34:16.096Z,16.38
2024-02-21T02:36:43.366Z,16.68
2024-02-21T02:39:11.234Z,15.84
2024-02-21T02:41:38.441Z,15.91
2024-02-21T02:44:05.732Z,15.99
2024-02-21T02:46:33.276Z,16.13
2024-02-21T02:49:00.791Z,16.18
2024-02-21T02:51:28.110Z,16.33
2024-02-21T02:53:55.657Z,16.51
2024-02-21T02:56:22.845Z,16.71
2024-02-21T02:58:50.129Z,16.65
2024-02-21T03:01:17.757Z,16.55
2024-02-21T03:03:47.008Z,16.48
2024-02-21T03:06:15.012Z,16.63
2024-02-21T03:08:42.579Z,16.56
2024-02-21T03:11:10.014Z,16.47
2024-02-21T03:13:37.398Z,16.62
2024-02-21T03:16:05.015Z,16.44
2024-02-21T03:18:33.168Z,16.52
2024-02-21T03:21:00.682Z,16.88
2024-02-21T03:23:28.224Z,16.57
2024-02-21T03:25:55.530Z,16.61
2024-02-21T03:28:22.828Z,16.66
2024-02-21T03:30:50.313Z,16.74
2024-02-21T03:33:17.529Z,16.82
2024-02-21T03:35:44.711Z,16.84
2024-02-21T03:38:12.160Z,16.56
2024-02-21T03:40:39.427Z,16.24
2024-02-21T03:43:06.624Z,16.37
2024-02-21T03:45:34.165Z,16.10
2024-02-21T03:48:01.474Z,16.01
2024-02-21T03:50:29.042Z,16.26
2024-02-21T03:52:56.671Z,16.22
2024-02-21T03:55:23.888Z,16.09
2024-02-21T03:57:51.201Z,16.00
2024-02-21T04:00:18.949Z,15.86
2024-02-21T04:02:46.393Z,15.95
2024-02-21T04:05:16.539Z,16.10
2024-02-21T04:07:44.160Z,16.47
2024-02-21T04:10:11.854Z,16.09
2024-02-21T04:12:39.552Z,15.95
2024-02-21T04:15:07.115Z,15.98
2024-02-21T04:17:34.588Z,16.17
2024-02-21T04:20:09.958Z,15.96
2024-02-21T04:22:37.656Z,16.15
2024-02-21T04:25:05.011Z,16.16
2024-02-21T04:27:32.187Z,16.05
2024-02-21T04:29:59.795Z,15.74
2024-02-21T04:32:28.586Z,15.83
2024-02-21T04:34:56.187Z,15.69
2024-02-21T04:37:23.888Z,15.92
2024-02-21T04:39:51.122Z,15.86
2024-02-21T04:42:18.455Z,15.99
2024-02-21T04:44:45.945Z,15.95
2024-02-21T04:47:13.317Z,15.73
2024-02-21T04:49:40.576Z,16.06
2024-02-21T04:52:08.096Z,15.88
2024-02-21T04:54:36.705Z,15.61
2024-02-21T04:57:05.547Z,15.43
2024-02-21T04:59:33.465Z,15.21
2024-02-21T05:02:00.999Z,15.30
2024-02-21T05:04:28.524Z,15.06
2024-02-21T05:06:56.164Z,14.65
2024-02-21T05:09:23.470Z,15.29
2024-02-21T05:11:50.791Z,15.13
2024-02-21T05:14:18.632Z,15.23
2024-02-21T05:16:46.396Z,15.27
2024-02-21T05:19:13.968Z,15.46
2024-02-21T05:21:41.528Z,15.69
2024-02-21T05:24:08.756Z,15.56
2024-02-21T05:26:36.052Z,15.07
2024-02-21T05:29:03.578Z,14.92
2024-02-21T05:31:43.988Z,15.48
2024-02-21T05:34:12.496Z,15.20
2024-02-21T05:36:40.028Z,15.37
2024-02-21T05:39:07.529Z,15.18
2024-02-21T05:41:34.954Z,15.04
2024-02-21T05:44:02.216Z,14.90
2024-02-21T05:46:29.567Z,15.21
2024-02-21T05:48:57.218Z,15.05
2024-02-21T05:51:24.425Z,15.37
2024-02-21T05:53:52.226Z,15.02
2024-02-21T05:56:20.616Z,15.83
2024-02-21T05:58:47.937Z,15.52
2024-02-21T06:01:15.832Z,14.94
2024-02-21T06:03:43.387Z,14.77
2024-02-21T06:06:10.942Z,15.26
2024-02-21T06:08:38.290Z,14.86
2024-02-21T06:11:05.879Z,14.97
2024-02-21T06:13:33.156Z,14.92
2024-02-21T06:16:00.405Z,14.90
2024-02-21T06:18:27.925Z,15.17
2024-02-21T06:20:55.183Z,15.05
2024-02-21T06:23:22.449Z,15.19
2024-02-21T06:25:50.061Z,15.03
2024-02-21T06:28:17.359Z,15.30
2024-02-21T06:30:44.630Z,15.41
2024-02-21T06:33:12.279Z,15.39
2024-02-21T06:35:42.247Z,15.20
2024-02-21T06:38:09.822Z,15.18
2024-02-21T06:40:40.789Z,14.88
2024-02-21T06:43:08.281Z,14.86
2024-02-21T06:45:35.503Z,15.13
2024-02-21T06:48:03.393Z,15.01
2024-02-21T06:50:30.658Z,15.08
2024-02-21T06:52:57.979Z,15.31
2024-02-21T06:55:25.573Z,15.25
2024-02-21T06:57:52.856Z,15.56
2024-02-21T07:00:22.561Z,15.59
2024-02-21T07:02:50.208Z,16.09
2024-02-21T07:05:17.956Z,16.09
2024-02-21T07:07:45.313Z,15.95
2024-02-21T07:10:12.812Z,15.58
2024-02-21T07:12:43.099Z,16.37
2024-02-21T07:15:11.370Z,16.19
2024-02-21T07:17:38.850Z,15.64
2024-02-21T07:20:06.452Z,15.71
2024-02-21T07:22:33.734Z,15.83
2024-02-21T07:25:04.621Z,16.21
2024-02-21T07:27:34.533Z,15.83
2024-02-21T07:30:02.038Z,15.70
2024-02-21T07:32:29.253Z,15.86
2024-02-21T07:34:57.034Z,15.88
2024-02-21T07:37:24.600Z,15.97
2024-02-21T07:39:51.862Z,16.19
2024-02-21T07:42:19.093Z,16.03
2024-02-21T07:44:46.576Z,15.92
2024-02-21T07:47:13.935Z,15.98
2024-02-21T07:49:45.472Z,15.89
2024-02-21T07:52:13.044Z,16.18
2024-02-21T07:54:40.234Z,15.84
2024-02-21T07:57:07.965Z,15.87
2024-02-21T07:59:35.556Z,16.07
2024-02-21T08:02:03.706Z,15.78
2024-02-21T08:04:31.386Z,16.16
2024-02-21T08:07:02.372Z,16.00
2024-02-21T08:09:29.794Z,16.47
2024-02-21T08:11:57.266Z,16.77
2024-02-21T08:14:25.865Z,17.21
2024-02-21T08:16:56.752Z,16.94
2024-02-21T08:19:24.452Z,16.89
2024-02-21T08:21:51.730Z,16.93
2024-02-21T08:24:18.937Z,17.38
2024-02-21T08:26:46.416Z,17.56
2024-02-21T08:29:13.759Z,17.59
2024-02-21T08:31:41.155Z,17.01
2024-02-21T08:34:08.795Z,16.96
2024-02-21T08:36:36.145Z,16.97
2024-02-21T08:39:06.534Z,17.54
2024-02-21T08:41:47.367Z,16.83
2024-02-21T08:44:23.309Z,17.25
2024-02-21T08:46:50.832Z,17.31
2024-02-21T08:49:18.138Z,17.56
2024-02-21T08:51:45.464Z,17.06
2024-02-21T08:54:13.025Z,17.18
2024-02-21T08:56:40.341Z,17.17
2024-02-21T08:59:07.585Z,17.31
2024-02-21T09:01:35.987Z,17.24
2024-02-21T09:04:04.102Z,17.63
2024-02-21T09:06:31.703Z,17.55
2024-02-21T09:08:59.460Z,17.57
2024-02-21T09:11:28.949Z,17.73
2024-02-21T09:13:56.611Z,17.85
2024-02-21T09:16:24.689Z,18.00
2024-02-21T09:18:53.863Z,17.92
2024-02-21T09:21:21.138Z,18.27
2024-02-21T09:23:48.701Z,18.37
2024-02-21T09:26:17.978Z,18.47
2024-02-21T09:28:45.614Z,18.42
2024-02-21T09:31:13.281Z,18.63
2024-02-21T09:33:40.817Z,18.61
2024-02-21T09:36:08.037Z,18.66
2024-02-21T09:38:38.180Z,18.55
2024-02-21T09:41:06.005Z,18.89
2024-02-21T09:43:33.388Z,18.70
2024-02-21T09:46:01.262Z,18.76
2024-02-21T09:48:35.640Z,18.81
2024-02-21T09:51:18.780Z,19.41
2024-02-21T09:53:54.789Z,18.78
2024-02-21T09:56:26.302Z,19.47
2024-02-21T09:58:53.640Z,19.27
2024-02-21T10:01:25.916Z,19.30
2024-02-21T10:04:03.958Z,19.45
2024-02-21T10:06:31.432Z,19.69
2024-02-21T10:08:58.800Z,19.62
2024-02-21T10:11:26.679Z,19.33
2024-02-21T10:14:06.546Z,19.53
2024-02-21T10:16:38.663Z,19.24
2024-02-21T10:19:06.165Z,19.47
2024-02-21T10:21:33.875Z,19.03
2024-02-21T10:24:01.943Z,19.11
2024-02-21T10:26:29.212Z,19.47
2024-02-21T10:28:57.029Z,19.22
2024-02-21T10:31:25.666Z,19.40
2024-02-21T10:33:57.018Z,19.39
2024-02-21T10:36:25.630Z,19.73
2024-02-21T10:38:53.195Z,19.40
2024-02-21T10:41:20.661Z,19.57
2024-02-21T10:43:50.985Z,19.90
2024-02-21T10:46:19.857Z,20.34
2024-02-21T10:48:47.460Z,20.34
2024-02-21T10:51:21.563Z,20.35
2024-02-21T10:53:52.012Z,20.05
2024-02-21T10:56:28.236Z,20.14
2024-02-21T10:58:57.368Z,20.30
2024-02-21T11:01:25.250Z,19.97
2024-02-21T11:03:55.026Z,20.51
2024-02-21T11:06:22.921Z,20.74
2024-02-21T11:09:00.788Z,20.77
2024-02-21T11:11:34.776Z,20.59
2024-02-21T11:14:19.938Z,20.36
2024-02-21T11:16:47.394Z,20.56
2024-02-21T11:19:22.807Z,20.48
2024-02-21T11:21:50.826Z,20.87
2024-02-21T11:24:28.914Z,20.66
2024-02-21T11:26:56.641Z,20.57
2024-02-21T11:29:24.623Z,20.34
2024-02-21T11:31:52.110Z,20.71
2024-02-21T11:34:20.212Z,20.91
2024-02-21T11:36:51.480Z,20.45
2024-02-21T11:39:22.521Z,20.18
2024-02-21T11:42:05.557Z,19.73
2024-02-21T11:44:32.975Z,19.58
2024-02-21T11:47:01.106Z,19.25
2024-02-21T11:49:31.785Z,19.79
2024-02-21T11:52:00.287Z,20.32
2024-02-21T11:54:28.345Z,20.62
2024-02-21T11:56:56.089Z,21.15
2024-02-21T11:59:23.597Z,21.65
2024-02-21T12:01:53.123Z,21.85
2024-02-21T12:04:21.931Z,21.08
2024-02-21T12:06:49.334Z,20.86
2024-02-21T12:09:20.610Z,20.81
2024-02-21T12:11:57.639Z,21.37
2024-02-21T12:14:25.863Z,20.83
2024-02-21T12:16:53.337Z,19.94
2024-02-21T12:19:20.746Z,20.57
2024-02-21T12:21:48.934Z,20.14
2024-02-21T12:24:17.207Z,20.26
2024-02-21T12:26:48.483Z,21.19
2024-02-21T12:29:16.378Z,21.09
2024-02-21T12:31:46.045Z,21.37
2024-02-21T12:34:14.396Z,21.13
2024-02-21T12:36:49.227Z,20.69
2024-02-21T12:39:17.573Z,20.21
2024-02-21T12:41:45.447Z,20.74
2024-02-21T12:44:13.784Z,20.01
2024-02-21T12:46:41.457Z,19.54
2024-02-21T12:49:11.488Z,20.31
2024-02-21T12:51:39.268Z,20.47
2024-02-21T12:54:06.760Z,21.25
2024-02-21T12:56:33.976Z,20.82
2024-02-21T12:59:01.735Z,20.03
2024-02-21T13:01:29.467Z,20.42
2024-02-21T13:03:58.553Z,19.84
2024-02-21T13:06:26.173Z,20.22
2024-02-21T13:08:54.132Z,20.35
2024-02-21T13:11:21.738Z,19.83
2024-02-21T13:13:49.705Z,20.35
2024-02-21T13:16:17.437Z,20.76
2024-02-21T13:18:44.705Z,20.43
2024-02-21T13:21:11.914Z,20.18
2024-02-21T13:23:39.835Z,19.53
2024-02-21T13:26:07.657Z,19.37
2024-02-21T13:28:35.143Z,19.15
2024-02-21T13:31:02.713Z,19.59
2024-02-21T13:33:30.406Z,19.73
2024-02-21T13:35:57.712Z,20.53
2024-02-21T13:38:25.462Z,19.19
2024-02-21T13:40:52.823Z,19.60
2024-02-21T13:43:20.137Z,20.02
2024-02-21T13:45:57.343Z,20.37
2024-02-21T13:48:25.612Z,20.16
2024-02-21T13:50:53.429Z,19.93
2024-02-21T13:53:21.801Z,20.31
2024-02-21T13:55:49.255Z,19.58
2024-02-21T13:58:16.880Z,19.63
2024-02-21T14:00:44.488Z,20.73
2024-02-21T14:03:12.155Z,19.48
2024-02-21T14:05:43.389Z,19.60
2024-02-21T14:08:11.242Z,20.12
2024-02-21T14:10:38.921Z,20.05
2024-02-21T14:13:06.656Z,21.13
2024-02-21T14:15:33.998Z,20.07
2024-02-21T14:18:01.609Z,21.06
2024-02-21T14:20:28.965Z,20.16
2024-02-21T14:22:56.612Z,20.28
2024-02-21T14:25:24.233Z,20.17
2024-02-21T14:27:52.080Z,20.15
2024-02-21T14:30:19.434Z,20.17
2024-02-21T14:32:47.420Z,20.05
2024-02-21T14:35:16.741Z,21.20
2024-02-21T14:37:44.426Z,21.23
2024-02-21T14:40:12.923Z,21.09
2024-02-21T14:42:40.175Z,21.15
2024-02-21T14:45:07.899Z,21.04
2024-02-21T14:47:35.633Z,20.88
2024-02-21T14:50:04.099Z,20.71
2024-02-21T14:52:31.783Z,20.36
2024-02-21T14:54:59.792Z,20.82
2024-02-21T14:57:28.698Z,20.77
2024-02-21T14:59:57.747Z,20.97
2024-02-21T15:02:25.945Z,20.64
2024-02-21T15:04:53.742Z,20.91
2024-02-21T15:07:21.358Z,20.84
2024-02-21T15:09:49.605Z,20.87
2024-02-21T15:12:16.780Z,21.10
2024-02-21T15:14:44.401Z,21.43
2024-02-21T15:17:12.332Z,21.51
2024-02-21T15:19:43.150Z,21.07
2024-02-21T15:22:13.636Z,21.28
2024-02-21T15:24:41.418Z,21.53
2024-02-21T15:27:09.518Z,21.52
2024-02-21T15:29:37.521Z,21.53
2024-02-21T15:32:05.757Z,20.79
2024-02-21T15:34:33.688Z,21.07
2024-02-21T15:37:01.466Z,21.00
2024-02-21T15:39:29.082Z,21.09
2024-02-21T15:41:57.818Z,20.99
2024-02-21T15:44:25.803Z,21.17
2024-02-21T15:46:54.593Z,20.82
2024-02-21T15:49:22.507Z,21.06
2024-02-21T15:51:50.564Z,21.13
2024-02-21T15:54:22.224Z,20.62
2024-02-21T15:56:51.766Z,20.84
2024-02-21T15:59:19.534Z,21.27
2024-02-21T16:01:47.256Z,21.27
2024-02-21T16:04:16.842Z,21.38
2024-02-21T16:06:45.473Z,21.35
2024-02-21T16:09:12.734Z,21.40
2024-02-21T16:11:40.333Z,21.85
2024-02-21T16:14:08.325Z,21.76
2024-02-21T16:16:35.843Z,21.46
2024-02-21T16:19:06.564Z,21.36
2024-02-21T16:21:34.325Z,20.89
2024-02-21T16:24:01.905Z,20.41
2024-02-21T16:26:29.463Z,20.60
2024-02-21T16:28:56.698Z,21.02
2024-02-21T16:31:24.484Z,20.57
2024-02-21T16:33:52.138Z,20.48
2024-02-21T16:36:25.825Z,20.71
2024-02-21T16:38:53.494Z,20.52
2024-02-21T16:41:25.026Z,20.70
2024-02-21T16:43:52.483Z,20.72
2024-02-21T16:46:21.585Z,20.61
2024-02-21T16:48:50.182Z,20.59
2024-02-21T16:51:17.645Z,20.57
2024-02-21T16:53:46.092Z,20.41
2024-02-21T16:56:13.563Z,20.21
2024-02-21T16:58:40.937Z,19.62
2024-02-21T17:01:12.889Z,20.06
2024-02-21T17:03:41.844Z,19.99
2024-02-21T17:06:15.841Z,19.79
2024-02-21T17:08:46.078Z,19.85
2024-02-21T17:11:14.329Z,19.91
2024-02-21T17:13:43.299Z,19.99
2024-02-21T17:16:12.283Z,19.82
2024-02-21T17:18:40.889Z,19.40
2024-02-21T17:21:09.208Z,19.19
2024-02-21T17:23:36.611Z,19.16
2024-02-21T17:26:04.341Z,19.52
2024-02-21T17:28:33.525Z,19.36
2024-02-21T17:31:00.790Z,19.25
2024-02-21T17:33:28.364Z,19.02
2024-02-21T17:35:56.033Z,19.30
2024-02-21T17:38:24.156Z,19.25
2024-02-21T17:40:52.435Z,19.04
2024-02-21T17:43:22.382Z,19.19
2024-02-21T17:45:51.308Z,19.50
2024-02-21T17:48:19.999Z,19.16
2024-02-21T17:50:47.400Z,19.42
2024-02-21T17:53:15.405Z,19.32
2024-02-21T17:55:43.041Z,19.66
2024-02-21T17:58:10.274Z,19.48
2024-02-21T18:00:42.562Z,19.58
2024-02-21T18:03:11.218Z,19.55
2024-02-21T18:05:39.020Z,19.67
2024-02-21T18:08:07.982Z,19.56
2024-02-21T18:10:39.103Z,19.32
2024-02-21T18:13:06.883Z,19.31
2024-02-21T18:15:34.738Z,19.26
2024-02-21T18:18:02.290Z,19.20
2024-02-21T18:20:32.487Z,18.65
2024-02-21T18:22:59.835Z,18.79
2024-02-21T18:25:27.872Z,18.82
2024-02-21T18:27:56.108Z,18.94
2024-02-21T18:30:24.545Z,18.81
2024-02-21T18:32:52.208Z,19.53
2024-02-21T18:35:19.883Z,19.26
2024-02-21T18:37:48.105Z,18.94
2024-02-21T18:40:18.542Z,18.97
2024-02-21T18:42:48.085Z,18.84
2024-02-21T18:45:18.768Z,18.91
2024-02-21T18:47:46.782Z,19.08
2024-02-21T18:50:14.492Z,19.13
2024-02-21T18:52:42.592Z,18.80
2024-02-21T18:55:12.389Z,19.07
2024-02-21T18:57:40.542Z,19.34
2024-02-21T19:00:11.150Z,19.00
2024-02-21T19:02:38.540Z,19.21
2024-02-21T19:05:06.432Z,19.02
2024-02-21T19:07:35.685Z,18.91
2024-02-21T19:10:05.093Z,18.77
2024-02-21T19:12:32.689Z,18.73
2024-02-21T19:15:00.850Z,18.99
2024-02-21T19:17:30.093Z,19.25
2024-02-21T19:19:57.664Z,18.84
2024-02-21T19:22:30.348Z,19.07
2024-02-21T19:24:58.148Z,18.95
2024-02-21T19:27:26.081Z,18.72
2024-02-21T19:29:53.265Z,18.59
2024-02-21T19:32:23.720Z,18.49
2024-02-21T19:34:53.369Z,18.77
2024-02-21T19:37:22.492Z,19.11
2024-02-21T19:39:50.099Z,18.73
2024-02-21T19:42:17.883Z,18.45
2024-02-21T19:44:45.410Z,18.55
2024-02-21T19:47:14.527Z,18.33
2024-02-21T19:49:43.092Z,18.46
2024-02-21T19:52:10.437Z,18.57
2024-02-21T19:54:37.817Z,18.73
2024-02-21T19:57:05.497Z,17.63
2024-02-21T19:59:34.142Z,18.43
2024-02-21T20:02:01.831Z,18.78
2024-02-21T20:04:30.299Z,18.90
2024-02-21T20:06:58.106Z,18.91
2024-02-21T20:09:25.796Z,18.78
2024-02-21T20:11:54.282Z,19.09
2024-02-21T20:14:23.016Z,18.65
2024-02-21T20:16:51.290Z,18.35
2024-02-21T20:19:19.528Z,18.35
2024-02-21T20:21:48.395Z,18.46
2024-02-21T20:24:28.037Z,18.61
2024-02-21T20:27:03.578Z,17.90
2024-02-21T20:29:31.805Z,18.46
2024-02-21T20:32:00.788Z,18.29
2024-02-21T20:34:31.645Z,18.05
2024-02-21T20:36:59.241Z,18.27
2024-02-21T20:39:29.274Z,18.06
2024-02-21T20:41:57.921Z,17.86
2024-02-21T20:44:26.112Z,17.92
2024-02-21T20:46:53.382Z,17.94
2024-02-21T20:49:21.025Z,17.97
2024-02-21T20:51:48.456Z,18.18
2024-02-21T20:54:16.274Z,18.42
2024-02-21T20:56:44.592Z,17.95
2024-02-21T20:59:12.183Z,17.23
2024-02-21T21:01:44.887Z,17.90
2024-02-21T21:04:18.768Z,18.04
2024-02-21T21:06:46.084Z,18.01
2024-02-21T21:09:13.366Z,18.28
2024-02-21T21:11:46.377Z,17.87
2024-02-21T21:14:14.617Z,17.84
2024-02-21T21:16:42.598Z,18.05
2024-02-21T21:19:11.495Z,17.87
2024-02-21T21:21:39.642Z,17.81
2024-02-21T21:24:07.879Z,18.08
2024-02-21T21:26:36.374Z,17.92
2024-02-21T21:29:04.155Z,17.80
2024-02-21T21:31:32.552Z,17.67
2024-02-21T21:34:00.706Z,17.68
2024-02-21T21:36:28.189Z,17.75
2024-02-21T21:38:55.692Z,17.69
2024-02-21T21:41:22.958Z,17.88
2024-02-21T21:43:50.174Z,17.63
2024-02-21T21:46:17.852Z,17.81
2024-02-21T21:48:45.244Z,18.13
2024-02-21T21:51:12.602Z,17.80
2024-02-21T21:53:41.015Z,17.77
2024-02-21T21:56:08.359Z,17.44
2024-02-21T21:58:36.012Z,17.38
2024-02-21T22:01:03.802Z,17.55
2024-02-21T22:03:31.505Z,17.16
2024-02-21T22:05:58.863Z,17.97
2024-02-21T22:08:26.283Z,17.77
2024-02-21T22:10:53.843Z,17.67
2024-02-21T22:13:21.067Z,17.82
2024-02-21T22:15:48.579Z,17.80
2024-02-21T22:18:16.515Z,17.36
2024-02-21T22:20:44.082Z,17.41
2024-02-21T22:23:11.613Z,17.88
2024-02-21T22:25:41.672Z,17.94
2024-02-21T22:28:09.313Z,17.36
2024-02-21T22:30:36.721Z,17.85
2024-02-21T22:33:04.310Z,17.42
2024-02-21T22:35:31.603Z,17.23
2024-02-21T22:37:58.968Z,17.34
2024-02-21T22:40:26.507Z,17.23
2024-02-21T22:42:53.800Z,17.24
2024-02-21T22:45:21.215Z,17.12
2024-02-21T22:47:48.887Z,17.15
2024-02-21T22:50:17.221Z,17.34
2024-02-21T22:52:45.310Z,17.22
2024-02-21T22:55:13.140Z,17.33
2024-02-21T22:57:42.898Z,17.22
2024-02-21T23:00:10.545Z,17.09
2024-02-21T23:02:38.287Z,17.02
2024-02-21T23:05:06.043Z,16.96
2024-02-21T23:07:34.579Z,16.89
2024-02-21T23:10:02.678Z,17.01
2024-02-21T23:12:29.967Z,17.56
2024-02-21T23:14:57.427Z,16.92
2024-02-21T23:17:24.959Z,17.17
2024-02-21T23:19:52.224Z,17.16
2024-02-21T23:22:21.796Z,17.41
2024-02-21T23:24:49.334Z,17.16
2024-02-21T23:27:16.694Z,17.16
2024-02-21T23:29:44.833Z,17.03
2024-02-21T23:32:13.723Z,16.82
2024-02-21T23:34:41.182Z,17.02
2024-02-21T23:37:09.142Z,16.96
2024-02-21T23:39:36.642Z,16.75
2024-02-21T23:42:04.349Z,16.84
2024-02-21T23:44:31.712Z,17.21
2024-02-21T23:47:00.067Z,16.98
2024-02-21T23:49:27.703Z,17.29
2024-02-21T23:51:56.709Z,17.10
2024-02-21T23:54:24.296Z,16.85
2024-02-21T23:56:51.623Z,16.90
2024-02-21T23:59:19.032Z,17.15
